sensor_id;sensor_type;location;lat;lon;timestamp;P1;durP1;ratioP1;P2;durP2;ratioP2
15006;SDS011;7599;50.748;13.142;2024-03-22T00:04:17;5.97;;;3.58;;
15006;SDS011;7599;50.748;13.142;2024-03-22T00:07:18;7.22;;;3.97;;
15006;SDS011;7599;50.748;13.142;2024-03-22T00:10:19;6.55;;;3.92;;
15006;SDS011;7599;50.748;13.142;2024-03-22T00:13:27;6.50;;;3.97;;
15006;SDS011;7599;50.748;13.142;2024-03-22T00:16:30;6.40;;;4.30;;
15006;SDS011;7599;50.748;13.142;2024-03-22T00:19:31;6.65;;;4.00;;
15006;SDS011;7599;50.748;13.142;2024-03-22T00:22:42;7.47;;;4.28;;
15006;SDS011;7599;50.748;13.142;2024-03-22T00:25:45;8.13;;;4.35;;
15006;SDS011;7599;50.748;13.142;2024-03-22T00:28:46;5.78;;;3.80;;
15006;SDS011;7599;50.748;13.142;2024-03-22T00:32:18;7.13;;;4.05;;
15006;SDS011;7599;50.748;13.142;2024-03-22T00:35:20;6.70;;;3.83;;
15006;SDS011;7599;50.748;13.142;2024-03-22T00:38:23;7.97;;;4.45;;
15006;SDS011;7599;50.748;13.142;2024-03-22T00:41:28;7.50;;;3.88;;
15006;SDS011;7599;50.748;13.142;2024-03-22T00:44:29;8.05;;;4.32;;
15006;SDS011;7599;50.748;13.142;2024-03-22T00:48:10;7.32;;;4.20;;
15006;SDS011;7599;50.748;13.142;2024-03-22T00:51:12;5.90;;;4.07;;
15006;SDS011;7599;50.748;13.142;2024-03-22T00:54:12;6.20;;;3.92;;
15006;SDS011;7599;50.748;13.142;2024-03-22T00:57:14;7.30;;;4.45;;
15006;SDS011;7599;50.748;13.142;2024-03-22T01:00:15;6.60;;;4.10;;
15006;SDS011;7599;50.748;13.142;2024-03-22T01:03:19;7.43;;;4.35;;
15006;SDS011;7599;50.748;13.142;2024-03-22T01:09:26;7.70;;;4.50;;
15006;SDS011;7599;50.748;13.142;2024-03-22T01:12:32;6.82;;;3.88;;
15006;SDS011;7599;50.748;13.142;2024-03-22T01:15:39;7.47;;;3.60;;
15006;SDS011;7599;50.748;13.142;2024-03-22T01:19:02;6.60;;;4.15;;
15006;SDS011;7599;50.748;13.142;2024-03-22T01:22:04;6.47;;;4.00;;
15006;SDS011;7599;50.748;13.142;2024-03-22T01:25:08;6.78;;;4.15;;
15006;SDS011;7599;50.748;13.142;2024-03-22T01:28:55;5.80;;;3.50;;
15006;SDS011;7599;50.748;13.142;2024-03-22T01:31:57;7.40;;;4.28;;
15006;SDS011;7599;50.748;13.142;2024-03-22T01:34:59;6.40;;;3.83;;
15006;SDS011;7599;50.748;13.142;2024-03-22T01:38:02;5.28;;;3.70;;
15006;SDS011;7599;50.748;13.142;2024-03-22T01:41:03;5.47;;;3.33;;
15006;SDS011;7599;50.748;13.142;2024-03-22T01:44:18;8.32;;;4.03;;
15006;SDS011;7599;50.748;13.142;2024-03-22T01:47:28;6.78;;;3.88;;
15006;SDS011;7599;50.748;13.142;2024-03-22T01:50:32;6.78;;;3.92;;
15006;SDS011;7599;50.748;13.142;2024-03-22T01:53:34;6.47;;;4.00;;
15006;SDS011;7599;50.748;13.142;2024-03-22T01:56:36;6.15;;;3.92;;
15006;SDS011;7599;50.748;13.142;2024-03-22T01:59:38;5.68;;;3.58;;
15006;SDS011;7599;50.748;13.142;2024-03-22T02:02:39;5.15;;;3.63;;
15006;SDS011;7599;50.748;13.142;2024-03-22T02:05:45;5.68;;;3.50;;
15006;SDS011;7599;50.748;13.142;2024-03-22T02:08:45;5.43;;;3.67;;
15006;SDS011;7599;50.748;13.142;2024-03-22T02:11:49;5.70;;;3.22;;
15006;SDS011;7599;50.748;13.142;2024-03-22T02:14:50;5.40;;;3.40;;
15006;SDS011;7599;50.748;13.142;2024-03-22T02:17:52;5.82;;;3.65;;
15006;SDS011;7599;50.748;13.142;2024-03-22T02:20:56;4.85;;;3.22;;
15006;SDS011;7599;50.748;13.142;2024-03-22T02:24:16;5.85;;;3.47;;
15006;SDS011;7599;50.748;13.142;2024-03-22T02:27:17;6.13;;;3.70;;
15006;SDS011;7599;50.748;13.142;2024-03-22T02:30:18;4.60;;;3.00;;
15006;SDS011;7599;50.748;13.142;2024-03-22T02:33:19;6.18;;;3.33;;
15006;SDS011;7599;50.748;13.142;2024-03-22T02:36:20;5.47;;;3.42;;
15006;SDS011;7599;50.748;13.142;2024-03-22T02:39:23;5.30;;;3.38;;
15006;SDS011;7599;50.748;13.142;2024-03-22T02:42:25;4.75;;;3.08;;
15006;SDS011;7599;50.748;13.142;2024-03-22T02:45:27;4.20;;;2.95;;
15006;SDS011;7599;50.748;13.142;2024-03-22T02:48:28;5.43;;;3.22;;
15006;SDS011;7599;50.748;13.142;2024-03-22T02:51:30;4.97;;;2.92;;
15006;SDS011;7599;50.748;13.142;2024-03-22T02:54:43;4.20;;;2.78;;
15006;SDS011;7599;50.748;13.142;2024-03-22T02:57:44;5.03;;;3.22;;
15006;SDS011;7599;50.748;13.142;2024-03-22T03:00:46;5.57;;;3.05;;
15006;SDS011;7599;50.748;13.142;2024-03-22T03:03:47;6.07;;;3.17;;
15006;SDS011;7599;50.748;13.142;2024-03-22T03:06:49;5.13;;;2.92;;
15006;SDS011;7599;50.748;13.142;2024-03-22T03:09:51;3.97;;;2.65;;
15006;SDS011;7599;50.748;13.142;2024-03-22T03:12:54;4.65;;;3.10;;
15006;SDS011;7599;50.748;13.142;2024-03-22T03:15:56;5.65;;;2.78;;
15006;SDS011;7599;50.748;13.142;2024-03-22T03:18:58;4.63;;;2.65;;
15006;SDS011;7599;50.748;13.142;2024-03-22T03:22:00;4.15;;;2.70;;
15006;SDS011;7599;50.748;13.142;2024-03-22T03:25:19;4.53;;;2.83;;
15006;SDS011;7599;50.748;13.142;2024-03-22T03:28:26;5.18;;;2.90;;
15006;SDS011;7599;50.748;13.142;2024-03-22T03:31:58;4.38;;;2.50;;
15006;SDS011;7599;50.748;13.142;2024-03-22T03:35:02;3.90;;;2.60;;
15006;SDS011;7599;50.748;13.142;2024-03-22T03:38:03;4.07;;;2.60;;
15006;SDS011;7599;50.748;13.142;2024-03-22T03:41:06;3.38;;;2.38;;
15006;SDS011;7599;50.748;13.142;2024-03-22T03:44:07;4.32;;;2.60;;
15006;SDS011;7599;50.748;13.142;2024-03-22T03:47:09;3.65;;;2.50;;
15006;SDS011;7599;50.748;13.142;2024-03-22T03:50:18;5.35;;;2.58;;
15006;SDS011;7599;50.748;13.142;2024-03-22T03:53:20;3.95;;;2.13;;
15006;SDS011;7599;50.748;13.142;2024-03-22T03:56:22;3.70;;;2.40;;
15006;SDS011;7599;50.748;13.142;2024-03-22T03:59:24;3.50;;;2.20;;
15006;SDS011;7599;50.748;13.142;2024-03-22T04:02:25;3.70;;;2.40;;
15006;SDS011;7599;50.748;13.142;2024-03-22T04:05:26;4.07;;;2.33;;
15006;SDS011;7599;50.748;13.142;2024-03-22T04:08:27;3.42;;;2.63;;
15006;SDS011;7599;50.748;13.142;2024-03-22T04:11:33;3.55;;;2.38;;
15006;SDS011;7599;50.748;13.142;2024-03-22T04:14:33;3.22;;;2.33;;
15006;SDS011;7599;50.748;13.142;2024-03-22T04:17:35;2.90;;;1.92;;
15006;SDS011;7599;50.748;13.142;2024-03-22T04:20:36;3.90;;;2.50;;
15006;SDS011;7599;50.748;13.142;2024-03-22T04:23:38;3.50;;;2.30;;
15006;SDS011;7599;50.748;13.142;2024-03-22T04:26:46;4.55;;;2.40;;
15006;SDS011;7599;50.748;13.142;2024-03-22T04:30:12;5.45;;;2.45;;
15006;SDS011;7599;50.748;13.142;2024-03-22T04:33:14;4.88;;;2.47;;
15006;SDS011;7599;50.748;13.142;2024-03-22T04:36:15;4.20;;;2.20;;
15006;SDS011;7599;50.748;13.142;2024-03-22T04:39:19;4.07;;;2.40;;
15006;SDS011;7599;50.748;13.142;2024-03-22T04:42:33;4.05;;;2.00;;
15006;SDS011;7599;50.748;13.142;2024-03-22T04:45:40;5.38;;;2.13;;
15006;SDS011;7599;50.748;13.142;2024-03-22T04:49:39;3.60;;;2.05;;
15006;SDS011;7599;50.748;13.142;2024-03-22T04:52:43;2.70;;;1.83;;
15006;SDS011;7599;50.748;13.142;2024-03-22T04:55:49;4.93;;;1.85;;
15006;SDS011;7599;50.748;13.142;2024-03-22T05:03:56;3.33;;;2.05;;
15006;SDS011;7599;50.748;13.142;2024-03-22T05:07:12;2.67;;;1.98;;
15006;SDS011;7599;50.748;13.142;2024-03-22T05:10:14;2.50;;;1.75;;
15006;SDS011;7599;50.748;13.142;2024-03-22T05:13:21;3.53;;;2.00;;
15006;SDS011;7599;50.748;13.142;2024-03-22T05:17:00;2.65;;;1.90;;
15006;SDS011;7599;50.748;13.142;2024-03-22T05:23:22;3.70;;;1.70;;
15006;SDS011;7599;50.748;13.142;2024-03-22T05:26:30;2.80;;;1.70;;
15006;SDS011;7599;50.748;13.142;2024-03-22T05:29:42;2.75;;;1.63;;
15006;SDS011;7599;50.748;13.142;2024-03-22T05:32:46;2.55;;;1.67;;
15006;SDS011;7599;50.748;13.142;2024-03-22T05:35:50;1.77;;;1.48;;
15006;SDS011;7599;50.748;13.142;2024-03-22T05:39:31;2.85;;;1.40;;
15006;SDS011;7599;50.748;13.142;2024-03-22T05:42:32;4.00;;;1.92;;
15006;SDS011;7599;50.748;13.142;2024-03-22T05:46:08;3.15;;;2.00;;
15006;SDS011;7599;50.748;13.142;2024-03-22T05:52:52;3.50;;;1.58;;
15006;SDS011;7599;50.748;13.142;2024-03-22T05:55:55;3.10;;;1.50;;
15006;SDS011;7599;50.748;13.142;2024-03-22T05:59:01;1.85;;;1.45;;
15006;SDS011;7599;50.748;13.142;2024-03-22T06:02:27;4.32;;;1.92;;
15006;SDS011;7599;50.748;13.142;2024-03-22T06:05:30;3.70;;;1.73;;
15006;SDS011;7599;50.748;13.142;2024-03-22T06:08:31;2.95;;;1.63;;
15006;SDS011;7599;50.748;13.142;2024-03-22T06:15:02;4.68;;;1.55;;
15006;SDS011;7599;50.748;13.142;2024-03-22T06:18:06;3.03;;;1.67;;
15006;SDS011;7599;50.748;13.142;2024-03-22T06:21:22;2.50;;;1.63;;
15006;SDS011;7599;50.748;13.142;2024-03-22T06:24:31;2.13;;;1.52;;
15006;SDS011;7599;50.748;13.142;2024-03-22T06:27:43;3.40;;;1.50;;
15006;SDS011;7599;50.748;13.142;2024-03-22T06:30:52;2.53;;;1.42;;
15006;SDS011;7599;50.748;13.142;2024-03-22T06:33:54;1.95;;;1.40;;
15006;SDS011;7599;50.748;13.142;2024-03-22T06:40:00;3.03;;;1.75;;
15006;SDS011;7599;50.748;13.142;2024-03-22T06:43:02;2.50;;;1.63;;
15006;SDS011;7599;50.748;13.142;2024-03-22T06:46:04;2.30;;;1.50;;
15006;SDS011;7599;50.748;13.142;2024-03-22T06:49:20;2.83;;;1.77;;
15006;SDS011;7599;50.748;13.142;2024-03-22T06:52:45;2.97;;;1.75;;
15006;SDS011;7599;50.748;13.142;2024-03-22T06:55:45;3.28;;;1.65;;
15006;SDS011;7599;50.748;13.142;2024-03-22T06:58:47;2.67;;;1.50;;
15006;SDS011;7599;50.748;13.142;2024-03-22T07:01:48;3.10;;;1.73;;
15006;SDS011;7599;50.748;13.142;2024-03-22T07:05:05;2.13;;;1.52;;
15006;SDS011;7599;50.748;13.142;2024-03-22T07:08:08;3.28;;;1.58;;
15006;SDS011;7599;50.748;13.142;2024-03-22T07:11:10;2.88;;;1.45;;
15006;SDS011;7599;50.748;13.142;2024-03-22T07:14:29;5.80;;;1.90;;
15006;SDS011;7599;50.748;13.142;2024-03-22T07:17:31;3.78;;;1.73;;
15006;SDS011;7599;50.748;13.142;2024-03-22T07:20:31;3.28;;;1.77;;
15006;SDS011;7599;50.748;13.142;2024-03-22T07:23:43;3.08;;;1.70;;
15006;SDS011;7599;50.748;13.142;2024-03-22T07:26:45;2.55;;;1.60;;
15006;SDS011;7599;50.748;13.142;2024-03-22T07:29:47;2.22;;;1.50;;
15006;SDS011;7599;50.748;13.142;2024-03-22T07:32:48;3.85;;;1.85;;
15006;SDS011;7599;50.748;13.142;2024-03-22T07:35:52;2.75;;;1.80;;
15006;SDS011;7599;50.748;13.142;2024-03-22T07:39:08;2.08;;;1.48;;
15006;SDS011;7599;50.748;13.142;2024-03-22T07:42:19;3.70;;;1.80;;
15006;SDS011;7599;50.748;13.142;2024-03-22T07:45:47;2.97;;;1.30;;
15006;SDS011;7599;50.748;13.142;2024-03-22T07:49:22;2.97;;;1.58;;
15006;SDS011;7599;50.748;13.142;2024-03-22T07:52:59;2.65;;;1.58;;
15006;SDS011;7599;50.748;13.142;2024-03-22T08:00:14;3.35;;;1.27;;
15006;SDS011;7599;50.748;13.142;2024-03-22T08:03:56;2.40;;;1.38;;
15006;SDS011;7599;50.748;13.142;2024-03-22T08:07:11;2.67;;;1.30;;
15006;SDS011;7599;50.748;13.142;2024-03-22T08:10:36;2.35;;;1.55;;
15006;SDS011;7599;50.748;13.142;2024-03-22T08:13:43;3.53;;;1.48;;
15006;SDS011;7599;50.748;13.142;2024-03-22T08:17:00;3.22;;;1.40;;
15006;SDS011;7599;50.748;13.142;2024-03-22T08:30:19;2.13;;;1.27;;
15006;SDS011;7599;50.748;13.142;2024-03-22T08:33:26;1.90;;;1.30;;
15006;SDS011;7599;50.748;13.142;2024-03-22T08:36:40;3.78;;;1.40;;
15006;SDS011;7599;50.748;13.142;2024-03-22T08:39:47;3.63;;;1.50;;
15006;SDS011;7599;50.748;13.142;2024-03-22T08:43:01;1.92;;;1.30;;
15006;SDS011;7599;50.748;13.142;2024-03-22T08:46:29;3.10;;;1.40;;
15006;SDS011;7599;50.748;13.142;2024-03-22T08:49:38;2.60;;;1.38;;
15006;SDS011;7599;50.748;13.142;2024-03-22T08:52:45;2.00;;;1.15;;
15006;SDS011;7599;50.748;13.142;2024-03-22T08:55:46;2.30;;;1.55;;
15006;SDS011;7599;50.748;13.142;2024-03-22T08:58:53;1.90;;;1.20;;
15006;SDS011;7599;50.748;13.142;2024-03-22T09:01:55;2.13;;;1.10;;
15006;SDS011;7599;50.748;13.142;2024-03-22T09:05:01;2.55;;;1.42;;
15006;SDS011;7599;50.748;13.142;2024-03-22T09:08:03;1.75;;;1.10;;
15006;SDS011;7599;50.748;13.142;2024-03-22T09:11:07;1.73;;;1.15;;
15006;SDS011;7599;50.748;13.142;2024-03-22T09:14:13;2.15;;;1.13;;
15006;SDS011;7599;50.748;13.142;2024-03-22T09:17:15;1.98;;;1.20;;
15006;SDS011;7599;50.748;13.142;2024-03-22T09:20:17;2.67;;;1.15;;
15006;SDS011;7599;50.748;13.142;2024-03-22T09:23:23;2.05;;;1.40;;
15006;SDS011;7599;50.748;13.142;2024-03-22T09:26:24;2.40;;;1.20;;
15006;SDS011;7599;50.748;13.142;2024-03-22T09:29:32;3.17;;;1.08;;
15006;SDS011;7599;50.748;13.142;2024-03-22T09:32:33;2.17;;;1.35;;
15006;SDS011;7599;50.748;13.142;2024-03-22T09:35:39;1.88;;;1.17;;
15006;SDS011;7599;50.748;13.142;2024-03-22T09:38:41;1.83;;;1.10;;
15006;SDS011;7599;50.748;13.142;2024-03-22T09:41:42;2.08;;;1.33;;
15006;SDS011;7599;50.748;13.142;2024-03-22T09:44:51;1.55;;;1.17;;
15006;SDS011;7599;50.748;13.142;2024-03-22T09:47:52;2.13;;;1.17;;
15006;SDS011;7599;50.748;13.142;2024-03-22T09:50:58;2.13;;;1.17;;
15006;SDS011;7599;50.748;13.142;2024-03-22T09:54:02;2.28;;;1.10;;
15006;SDS011;7599;50.748;13.142;2024-03-22T09:57:09;2.03;;;1.17;;
15006;SDS011;7599;50.748;13.142;2024-03-22T10:00:15;2.63;;;1.30;;
15006;SDS011;7599;50.748;13.142;2024-03-22T10:03:20;1.50;;;0.90;;
15006;SDS011;7599;50.748;13.142;2024-03-22T10:06:22;2.03;;;1.10;;
15006;SDS011;7599;50.748;13.142;2024-03-22T10:09:28;2.33;;;1.10;;
15006;SDS011;7599;50.748;13.142;2024-03-22T10:12:30;2.08;;;1.13;;
15006;SDS011;7599;50.748;13.142;2024-03-22T10:15:31;3.05;;;1.20;;
15006;SDS011;7599;50.748;13.142;2024-03-22T10:18:32;4.70;;;1.17;;
15006;SDS011;7599;50.748;13.142;2024-03-22T10:21:41;1.60;;;0.95;;
15006;SDS011;7599;50.748;13.142;2024-03-22T10:24:41;1.77;;;1.00;;
15006;SDS011;7599;50.748;13.142;2024-03-22T10:27:43;1.52;;;1.02;;
15006;SDS011;7599;50.748;13.142;2024-03-22T10:30:49;2.55;;;1.15;;
15006;SDS011;7599;50.748;13.142;2024-03-22T10:33:54;2.58;;;1.13;;
15006;SDS011;7599;50.748;13.142;2024-03-22T10:36:57;2.33;;;1.00;;
15006;SDS011;7599;50.748;13.142;2024-03-22T10:40:01;1.70;;;1.10;;
15006;SDS011;7599;50.748;13.142;2024-03-22T10:43:09;1.15;;;1.00;;
15006;SDS011;7599;50.748;13.142;2024-03-22T10:46:10;2.08;;;1.20;;
15006;SDS011;7599;50.748;13.142;2024-03-22T10:49:17;2.17;;;1.15;;
15006;SDS011;7599;50.748;13.142;2024-03-22T10:52:23;1.80;;;1.10;;
15006;SDS011;7599;50.748;13.142;2024-03-22T11:01:52;1.75;;;1.02;;
15006;SDS011;7599;50.748;13.142;2024-03-22T11:05:44;3.40;;;1.63;;
15006;SDS011;7599;50.748;13.142;2024-03-22T11:08:51;4.18;;;1.10;;
15006;SDS011;7599;50.748;13.142;2024-03-22T11:11:56;1.70;;;0.93;;
15006;SDS011;7599;50.748;13.142;2024-03-22T11:15:00;1.48;;;0.90;;
15006;SDS011;7599;50.748;13.142;2024-03-22T11:18:05;1.98;;;1.10;;
15006;SDS011;7599;50.748;13.142;2024-03-22T11:21:07;3.30;;;1.00;;
15006;SDS011;7599;50.748;13.142;2024-03-22T11:24:23;2.35;;;0.93;;
15006;SDS011;7599;50.748;13.142;2024-03-22T11:27:25;1.48;;;0.98;;
15006;SDS011;7599;50.748;13.142;2024-03-22T11:30:26;1.05;;;0.90;;
15006;SDS011;7599;50.748;13.142;2024-03-22T11:36:50;1.75;;;0.80;;
15006;SDS011;7599;50.748;13.142;2024-03-22T11:40:16;2.05;;;1.17;;
15006;SDS011;7599;50.748;13.142;2024-03-22T11:43:18;2.28;;;1.23;;
15006;SDS011;7599;50.748;13.142;2024-03-22T11:46:20;3.13;;;0.93;;
15006;SDS011;7599;50.748;13.142;2024-03-22T11:49:42;2.47;;;1.10;;
15006;SDS011;7599;50.748;13.142;2024-03-22T11:52:44;2.22;;;0.90;;
15006;SDS011;7599;50.748;13.142;2024-03-22T11:55:50;4.88;;;0.98;;
15006;SDS011;7599;50.748;13.142;2024-03-22T11:58:57;2.20;;;1.00;;
15006;SDS011;7599;50.748;13.142;2024-03-22T12:02:01;2.60;;;1.23;;
15006;SDS011;7599;50.748;13.142;2024-03-22T12:05:01;1.73;;;0.88;;
15006;SDS011;7599;50.748;13.142;2024-03-22T12:08:25;1.85;;;0.88;;
15006;SDS011;7599;50.748;13.142;2024-03-22T12:11:27;2.22;;;1.00;;
15006;SDS011;7599;50.748;13.142;2024-03-22T12:14:29;3.40;;;1.10;;
15006;SDS011;7599;50.748;13.142;2024-03-22T12:17:30;3.05;;;1.55;;
15006;SDS011;7599;50.748;13.142;2024-03-22T12:20:31;3.78;;;1.10;;
15006;SDS011;7599;50.748;13.142;2024-03-22T12:23:43;1.70;;;1.30;;
15006;SDS011;7599;50.748;13.142;2024-03-22T12:26:45;2.10;;;0.90;;
15006;SDS011;7599;50.748;13.142;2024-03-22T12:29:48;2.88;;;1.08;;
15006;SDS011;7599;50.748;13.142;2024-03-22T12:32:49;2.10;;;1.00;;
15006;SDS011;7599;50.748;13.142;2024-03-22T12:35:50;1.90;;;1.00;;
15006;SDS011;7599;50.748;13.142;2024-03-22T12:38:51;2.08;;;0.60;;
15006;SDS011;7599;50.748;13.142;2024-03-22T12:41:57;1.65;;;0.93;;
15006;SDS011;7599;50.748;13.142;2024-03-22T12:45:38;2.15;;;0.85;;
15006;SDS011;7599;50.748;13.142;2024-03-22T12:48:39;1.73;;;1.00;;
15006;SDS011;7599;50.748;13.142;2024-03-22T12:52:13;3.67;;;1.10;;
15006;SDS011;7599;50.748;13.142;2024-03-22T12:55:15;1.67;;;0.77;;
15006;SDS011;7599;50.748;13.142;2024-03-22T13:02:09;1.75;;;0.90;;
15006;SDS011;7599;50.748;13.142;2024-03-22T13:05:21;2.22;;;0.90;;
15006;SDS011;7599;50.748;13.142;2024-03-22T13:08:23;2.50;;;0.98;;
15006;SDS011;7599;50.748;13.142;2024-03-22T13:11:26;2.45;;;1.60;;
15006;SDS011;7599;50.748;13.142;2024-03-22T13:14:31;3.08;;;0.85;;
15006;SDS011;7599;50.748;13.142;2024-03-22T13:20:57;2.65;;;1.00;;
15006;SDS011;7599;50.748;13.142;2024-03-22T13:25:06;2.15;;;1.00;;
15006;SDS011;7599;50.748;13.142;2024-03-22T13:28:10;1.95;;;1.13;;
15006;SDS011;7599;50.748;13.142;2024-03-22T13:31:11;1.67;;;0.88;;
15006;SDS011;7599;50.748;13.142;2024-03-22T13:34:12;3.60;;;1.08;;
15006;SDS011;7599;50.748;13.142;2024-03-22T13:37:13;1.50;;;0.93;;
15006;SDS011;7599;50.748;13.142;2024-03-22T13:40:20;3.03;;;1.13;;
15006;SDS011;7599;50.748;13.142;2024-03-22T13:43:22;1.58;;;1.00;;
15006;SDS011;7599;50.748;13.142;2024-03-22T13:46:23;3.28;;;0.98;;
15006;SDS011;7599;50.748;13.142;2024-03-22T13:49:26;4.40;;;1.13;;
15006;SDS011;7599;50.748;13.142;2024-03-22T13:52:31;1.33;;;0.88;;
15006;SDS011;7599;50.748;13.142;2024-03-22T13:55:34;1.63;;;0.98;;
15006;SDS011;7599;50.748;13.142;2024-03-22T13:58:36;2.20;;;1.30;;
15006;SDS011;7599;50.748;13.142;2024-03-22T14:01:38;1.13;;;0.80;;
15006;SDS011;7599;50.748;13.142;2024-03-22T14:04:42;1.65;;;1.00;;
15006;SDS011;7599;50.748;13.142;2024-03-22T14:07:42;4.20;;;1.10;;
15006;SDS011;7599;50.748;13.142;2024-03-22T14:10:45;2.20;;;1.10;;
15006;SDS011;7599;50.748;13.142;2024-03-22T14:13:46;1.70;;;1.00;;
15006;SDS011;7599;50.748;13.142;2024-03-22T14:16:51;2.60;;;1.02;;
15006;SDS011;7599;50.748;13.142;2024-03-22T14:19:52;2.30;;;1.10;;
15006;SDS011;7599;50.748;13.142;2024-03-22T14:22:55;1.33;;;0.93;;
15006;SDS011;7599;50.748;13.142;2024-03-22T14:25:58;1.73;;;0.95;;
15006;SDS011;7599;50.748;13.142;2024-03-22T14:28:59;1.60;;;1.00;;
15006;SDS011;7599;50.748;13.142;2024-03-22T14:32:00;1.63;;;0.93;;
15006;SDS011;7599;50.748;13.142;2024-03-22T14:35:02;1.50;;;1.10;;
15006;SDS011;7599;50.748;13.142;2024-03-22T14:38:05;2.67;;;1.00;;
15006;SDS011;7599;50.748;13.142;2024-03-22T14:41:09;3.08;;;0.98;;
15006;SDS011;7599;50.748;13.142;2024-03-22T14:44:11;1.85;;;0.82;;
15006;SDS011;7599;50.748;13.142;2024-03-22T14:47:13;2.10;;;0.93;;
15006;SDS011;7599;50.748;13.142;2024-03-22T14:50:17;2.03;;;1.23;;
15006;SDS011;7599;50.748;13.142;2024-03-22T14:53:18;1.85;;;1.10;;
15006;SDS011;7599;50.748;13.142;2024-03-22T14:56:24;1.55;;;0.95;;
15006;SDS011;7599;50.748;13.142;2024-03-22T14:59:26;1.55;;;0.95;;
15006;SDS011;7599;50.748;13.142;2024-03-22T15:02:35;1.90;;;1.05;;
15006;SDS011;7599;50.748;13.142;2024-03-22T15:05:41;1.60;;;1.00;;
15006;SDS011;7599;50.748;13.142;2024-03-22T15:12:17;2.42;;;1.25;;
15006;SDS011;7599;50.748;13.142;2024-03-22T15:15:21;1.67;;;1.02;;
15006;SDS011;7599;50.748;13.142;2024-03-22T15:18:22;3.15;;;1.23;;
15006;SDS011;7599;50.748;13.142;2024-03-22T15:21:27;1.85;;;1.10;;
15006;SDS011;7599;50.748;13.142;2024-03-22T15:24:28;1.58;;;1.10;;
15006;SDS011;7599;50.748;13.142;2024-03-22T15:27:31;2.40;;;1.10;;
15006;SDS011;7599;50.748;13.142;2024-03-22T15:30:32;2.22;;;1.20;;
15006;SDS011;7599;50.748;13.142;2024-03-22T15:33:34;1.88;;;1.10;;
15006;SDS011;7599;50.748;13.142;2024-03-22T15:36:36;1.67;;;1.17;;
15006;SDS011;7599;50.748;13.142;2024-03-22T15:39:42;2.08;;;1.10;;
15006;SDS011;7599;50.748;13.142;2024-03-22T15:42:45;1.80;;;1.15;;
15006;SDS011;7599;50.748;13.142;2024-03-22T15:45:46;2.35;;;1.20;;
15006;SDS011;7599;50.748;13.142;2024-03-22T15:48:49;2.25;;;1.10;;
15006;SDS011;7599;50.748;13.142;2024-03-22T15:51:49;1.98;;;1.00;;
15006;SDS011;7599;50.748;13.142;2024-03-22T15:55:06;2.55;;;1.52;;
15006;SDS011;7599;50.748;13.142;2024-03-22T15:58:10;2.20;;;1.17;;
15006;SDS011;7599;50.748;13.142;2024-03-22T16:01:11;2.22;;;1.30;;
15006;SDS011;7599;50.748;13.142;2024-03-22T16:04:13;2.00;;;1.05;;
15006;SDS011;7599;50.748;13.142;2024-03-22T16:07:13;2.03;;;1.13;;
15006;SDS011;7599;50.748;13.142;2024-03-22T16:10:15;2.13;;;1.30;;
15006;SDS011;7599;50.748;13.142;2024-03-22T16:13:18;2.38;;;1.20;;
15006;SDS011;7599;50.748;13.142;2024-03-22T16:16:20;2.45;;;1.10;;
15006;SDS011;7599;50.748;13.142;2024-03-22T16:19:21;2.70;;;1.35;;
15006;SDS011;7599;50.748;13.142;2024-03-22T16:22:29;1.80;;;1.20;;
15006;SDS011;7599;50.748;13.142;2024-03-22T16:25:30;2.60;;;1.50;;
15006;SDS011;7599;50.748;13.142;2024-03-22T16:28:34;3.10;;;1.42;;
15006;SDS011;7599;50.748;13.142;2024-03-22T16:31:36;2.30;;;1.30;;
15006;SDS011;7599;50.748;13.142;2024-03-22T16:34:42;3.30;;;1.73;;
15006;SDS011;7599;50.748;13.142;2024-03-22T16:37:43;4.43;;;1.50;;
15006;SDS011;7599;50.748;13.142;2024-03-22T16:40:44;3.78;;;1.58;;
15006;SDS011;7599;50.748;13.142;2024-03-22T16:43:47;3.95;;;1.92;;
15006;SDS011;7599;50.748;13.142;2024-03-22T16:46:49;3.13;;;1.83;;
15006;SDS011;7599;50.748;13.142;2024-03-22T16:49:51;4.70;;;1.80;;
15006;SDS011;7599;50.748;13.142;2024-03-22T16:52:51;3.28;;;1.95;;
15006;SDS011;7599;50.748;13.142;2024-03-22T16:55:53;4.95;;;2.00;;
15006;SDS011;7599;50.748;13.142;2024-03-22T16:59:02;4.28;;;2.00;;
15006;SDS011;7599;50.748;13.142;2024-03-22T17:02:04;3.55;;;1.83;;
15006;SDS011;7599;50.748;13.142;2024-03-22T17:05:21;5.22;;;1.77;;
15006;SDS011;7599;50.748;13.142;2024-03-22T17:08:22;4.05;;;1.77;;
15006;SDS011;7599;50.748;13.142;2024-03-22T17:11:37;4.03;;;1.80;;
15006;SDS011;7599;50.748;13.142;2024-03-22T17:14:39;4.00;;;2.00;;
15006;SDS011;7599;50.748;13.142;2024-03-22T17:20:51;3.72;;;1.77;;
15006;SDS011;7599;50.748;13.142;2024-03-22T17:23:53;3.28;;;1.63;;
15006;SDS011;7599;50.748;13.142;2024-03-22T17:27:16;5.47;;;2.00;;
15006;SDS011;7599;50.748;13.142;2024-03-22T17:30:20;4.55;;;1.92;;
15006;SDS011;7599;50.748;13.142;2024-03-22T17:33:22;6.88;;;1.83;;
15006;SDS011;7599;50.748;13.142;2024-03-22T17:36:25;4.53;;;2.08;;
15006;SDS011;7599;50.748;13.142;2024-03-22T17:39:32;4.00;;;1.80;;
15006;SDS011;7599;50.748;13.142;2024-03-22T17:42:33;4.05;;;2.00;;
15006;SDS011;7599;50.748;13.142;2024-03-22T17:45:35;4.10;;;1.63;;
15006;SDS011;7599;50.748;13.142;2024-03-22T17:48:37;4.68;;;1.83;;
15006;SDS011;7599;50.748;13.142;2024-03-22T17:51:39;3.72;;;2.00;;
15006;SDS011;7599;50.748;13.142;2024-03-22T17:54:40;3.95;;;1.52;;
15006;SDS011;7599;50.748;13.142;2024-03-22T17:57:41;2.65;;;1.60;;
15006;SDS011;7599;50.748;13.142;2024-03-22T18:00:44;4.03;;;2.00;;
15006;SDS011;7599;50.748;13.142;2024-03-22T18:03:53;4.75;;;1.55;;
15006;SDS011;7599;50.748;13.142;2024-03-22T18:06:54;4.07;;;1.60;;
15006;SDS011;7599;50.748;13.142;2024-03-22T18:09:55;3.42;;;1.60;;
15006;SDS011;7599;50.748;13.142;2024-03-22T18:13:00;2.97;;;1.67;;
15006;SDS011;7599;50.748;13.142;2024-03-22T18:16:04;3.20;;;1.75;;
15006;SDS011;7599;50.748;13.142;2024-03-22T18:19:06;3.17;;;1.80;;
15006;SDS011;7599;50.748;13.142;2024-03-22T18:22:07;3.42;;;1.73;;
15006;SDS011;7599;50.748;13.142;2024-03-22T18:25:09;2.35;;;1.73;;
15006;SDS011;7599;50.748;13.142;2024-03-22T18:28:09;2.85;;;1.88;;
15006;SDS011;7599;50.748;13.142;2024-03-22T18:31:12;4.00;;;1.95;;
15006;SDS011;7599;50.748;13.142;2024-03-22T18:34:13;3.25;;;1.73;;
15006;SDS011;7599;50.748;13.142;2024-03-22T18:37:15;5.07;;;1.83;;
15006;SDS011;7599;50.748;13.142;2024-03-22T18:40:16;2.55;;;1.45;;
15006;SDS011;7599;50.748;13.142;2024-03-22T18:43:25;2.72;;;1.50;;
15006;SDS011;7599;50.748;13.142;2024-03-22T18:46:33;3.50;;;1.70;;
15006;SDS011;7599;50.748;13.142;2024-03-22T18:49:34;2.80;;;1.63;;
15006;SDS011;7599;50.748;13.142;2024-03-22T18:52:36;3.70;;;1.80;;
15006;SDS011;7599;50.748;13.142;2024-03-22T18:55:37;3.13;;;1.73;;
15006;SDS011;7599;50.748;13.142;2024-03-22T18:58:41;3.00;;;1.70;;
15006;SDS011;7599;50.748;13.142;2024-03-22T19:01:44;2.78;;;1.55;;
15006;SDS011;7599;50.748;13.142;2024-03-22T19:05:04;3.65;;;1.52;;
15006;SDS011;7599;50.748;13.142;2024-03-22T19:08:06;3.83;;;1.90;;
15006;SDS011;7599;50.748;13.142;2024-03-22T19:11:09;3.17;;;1.65;;
15006;SDS011;7599;50.748;13.142;2024-03-22T19:14:11;4.40;;;2.03;;
15006;SDS011;7599;50.748;13.142;2024-03-22T19:17:14;3.42;;;1.60;;
15006;SDS011;7599;50.748;13.142;2024-03-22T19:20:16;3.53;;;1.80;;
15006;SDS011;7599;50.748;13.142;2024-03-22T19:23:20;1.95;;;1.35;;
15006;SDS011;7599;50.748;13.142;2024-03-22T19:26:22;3.72;;;1.50;;
15006;SDS011;7599;50.748;13.142;2024-03-22T19:29:37;3.55;;;1.50;;
15006;SDS011;7599;50.748;13.142;2024-03-22T19:32:43;3.00;;;1.20;;
15006;SDS011;7599;50.748;13.142;2024-03-22T19:41:49;2.25;;;1.25;;
15006;SDS011;7599;50.748;13.142;2024-03-22T19:44:50;2.20;;;1.35;;
15006;SDS011;7599;50.748;13.142;2024-03-22T19:47:53;2.67;;;1.50;;
15006;SDS011;7599;50.748;13.142;2024-03-22T19:50:54;2.58;;;1.45;;